sensor_id;sensor_type;location;lat;lon;timestamp;P1;durP1;ratioP1;P2;durP2;ratioP2
18200;SDS011;9226;47.858;9.594;2022-11-02T00:01:43;13.67;;;5.40;;
18200;SDS011;9226;47.858;9.594;2022-11-02T00:04:09;11.10;;;5.43;;
18200;SDS011;9226;47.858;9.594;2022-11-02T00:06:34;9.07;;;3.90;;
18200;SDS011;9226;47.858;9.594;2022-11-02T00:09:00;9.20;;;4.90;;
18200;SDS011;9226;47.858;9.594;2022-11-02T00:11:26;12.23;;;5.67;;
18200;SDS011;9226;47.858;9.594;2022-11-02T00:13:51;14.60;;;4.93;;
18200;SDS011;9226;47.858;9.594;2022-11-02T00:16:17;12.30;;;4.93;;
18200;SDS011;9226;47.858;9.594;2022-11-02T00:18:45;14.03;;;4.53;;
18200;SDS011;9226;47.858;9.594;2022-11-02T00:21:14;8.70;;;3.67;;
18200;SDS011;9226;47.858;9.594;2022-11-02T00:23:41;10.30;;;4.10;;
18200;SDS011;9226;47.858;9.594;2022-11-02T00:26:07;12.97;;;4.10;;
18200;SDS011;9226;47.858;9.594;2022-11-02T00:28:33;12.97;;;4.03;;
18200;SDS011;9226;47.858;9.594;2022-11-02T00:30:59;10.10;;;3.97;;
18200;SDS011;9226;47.858;9.594;2022-11-02T00:33:25;9.40;;;3.90;;
18200;SDS011;9226;47.858;9.594;2022-11-02T00:35:50;6.63;;;3.77;;
18200;SDS011;9226;47.858;9.594;2022-11-02T00:38:18;14.87;;;4.43;;
18200;SDS011;9226;47.858;9.594;2022-11-02T00:40:43;8.87;;;3.97;;
18200;SDS011;9226;47.858;9.594;2022-11-02T00:43:09;6.80;;;3.67;;
18200;SDS011;9226;47.858;9.594;2022-11-02T00:45:34;7.07;;;3.60;;
18200;SDS011;9226;47.858;9.594;2022-11-02T00:47:59;9.43;;;3.83;;
18200;SDS011;9226;47.858;9.594;2022-11-02T00:50:25;8.40;;;4.20;;
18200;SDS011;9226;47.858;9.594;2022-11-02T00:52:51;6.57;;;3.70;;
18200;SDS011;9226;47.858;9.594;2022-11-02T00:55:16;12.13;;;4.07;;
18200;SDS011;9226;47.858;9.594;2022-11-02T00:57:42;9.60;;;4.10;;
18200;SDS011;9226;47.858;9.594;2022-11-02T01:00:08;8.50;;;3.50;;
18200;SDS011;9226;47.858;9.594;2022-11-02T01:02:35;9.00;;;3.70;;
18200;SDS011;9226;47.858;9.594;2022-11-02T01:05:02;8.03;;;3.70;;
18200;SDS011;9226;47.858;9.594;2022-11-02T01:07:28;10.20;;;3.27;;
18200;SDS011;9226;47.858;9.594;2022-11-02T01:09:54;7.13;;;3.00;;
18200;SDS011;9226;47.858;9.594;2022-11-02T01:12:19;7.87;;;3.20;;
18200;SDS011;9226;47.858;9.594;2022-11-02T01:14:46;10.70;;;3.63;;
18200;SDS011;9226;47.858;9.594;2022-11-02T01:17:12;7.13;;;3.07;;
18200;SDS011;9226;47.858;9.594;2022-11-02T01:19:37;9.77;;;3.30;;
18200;SDS011;9226;47.858;9.594;2022-11-02T01:22:02;6.43;;;2.87;;
18200;SDS011;9226;47.858;9.594;2022-11-02T01:24:28;8.40;;;3.10;;
18200;SDS011;9226;47.858;9.594;2022-11-02T01:26:54;7.57;;;2.90;;
18200;SDS011;9226;47.858;9.594;2022-11-02T01:29:19;7.23;;;3.03;;
18200;SDS011;9226;47.858;9.594;2022-11-02T01:31:45;9.57;;;2.77;;
18200;SDS011;9226;47.858;9.594;2022-11-02T01:34:11;6.37;;;2.63;;
18200;SDS011;9226;47.858;9.594;2022-11-02T01:36:36;9.60;;;3.27;;
18200;SDS011;9226;47.858;9.594;2022-11-02T01:39:02;11.07;;;3.00;;
18200;SDS011;9226;47.858;9.594;2022-11-02T01:41:27;9.03;;;2.47;;
18200;SDS011;9226;47.858;9.594;2022-11-02T01:43:54;7.27;;;3.10;;
18200;SDS011;9226;47.858;9.594;2022-11-02T01:46:28;8.33;;;2.77;;
18200;SDS011;9226;47.858;9.594;2022-11-02T01:49:05;4.73;;;3.03;;
18200;SDS011;9226;47.858;9.594;2022-11-02T01:51:39;8.17;;;3.17;;
18200;SDS011;9226;47.858;9.594;2022-11-02T01:54:09;7.70;;;4.43;;
18200;SDS011;9226;47.858;9.594;2022-11-02T01:56:51;15.23;;;4.67;;
18200;SDS011;9226;47.858;9.594;2022-11-02T01:59:22;10.07;;;4.10;;
18200;SDS011;9226;47.858;9.594;2022-11-02T02:01:53;11.80;;;4.60;;
18200;SDS011;9226;47.858;9.594;2022-11-02T02:04:18;12.87;;;4.80;;
18200;SDS011;9226;47.858;9.594;2022-11-02T02:06:44;12.10;;;5.00;;
18200;SDS011;9226;47.858;9.594;2022-11-02T02:09:10;11.23;;;4.50;;
18200;SDS011;9226;47.858;9.594;2022-11-02T02:11:38;8.27;;;4.20;;
18200;SDS011;9226;47.858;9.594;2022-11-02T02:14:05;9.53;;;3.50;;
18200;SDS011;9226;47.858;9.594;2022-11-02T02:19:03;10.53;;;4.00;;
18200;SDS011;9226;47.858;9.594;2022-11-02T02:30:15;8.27;;;4.27;;
18200;SDS011;9226;47.858;9.594;2022-11-02T02:32:46;9.13;;;4.67;;
18200;SDS011;9226;47.858;9.594;2022-11-02T02:38:00;11.63;;;5.70;;
18200;SDS011;9226;47.858;9.594;2022-11-02T02:43:05;11.63;;;5.03;;
18200;SDS011;9226;47.858;9.594;2022-11-02T02:45:40;8.07;;;4.70;;
18200;SDS011;9226;47.858;9.594;2022-11-02T02:48:10;8.87;;;4.73;;
18200;SDS011;9226;47.858;9.594;2022-11-02T02:50:45;7.07;;;3.40;;
18200;SDS011;9226;47.858;9.594;2022-11-02T02:53:14;205.30;;;11.57;;
18200;SDS011;9226;47.858;9.594;2022-11-02T02:55:44;117.63;;;8.07;;
18200;SDS011;9226;47.858;9.594;2022-11-02T02:58:12;14.20;;;5.67;;
18200;SDS011;9226;47.858;9.594;2022-11-02T03:00:43;9.37;;;4.90;;
18200;SDS011;9226;47.858;9.594;2022-11-02T03:03:12;11.63;;;4.50;;
18200;SDS011;9226;47.858;9.594;2022-11-02T03:05:42;9.00;;;4.53;;
18200;SDS011;9226;47.858;9.594;2022-11-02T03:08:11;12.13;;;4.50;;
18200;SDS011;9226;47.858;9.594;2022-11-02T03:16:08;7.57;;;3.10;;
18200;SDS011;9226;47.858;9.594;2022-11-02T03:18:52;10.77;;;3.00;;
18200;SDS011;9226;47.858;9.594;2022-11-02T03:21:28;12.33;;;4.97;;
18200;SDS011;9226;47.858;9.594;2022-11-02T03:24:26;10.27;;;4.87;;
18200;SDS011;9226;47.858;9.594;2022-11-02T03:27:15;11.30;;;5.07;;
18200;SDS011;9226;47.858;9.594;2022-11-02T03:35:35;11.07;;;4.57;;
18200;SDS011;9226;47.858;9.594;2022-11-02T03:38:14;6.93;;;4.03;;
18200;SDS011;9226;47.858;9.594;2022-11-02T03:40:44;6.43;;;3.20;;
18200;SDS011;9226;47.858;9.594;2022-11-02T03:43:13;7.37;;;3.07;;
18200;SDS011;9226;47.858;9.594;2022-11-02T03:45:46;6.27;;;3.27;;
18200;SDS011;9226;47.858;9.594;2022-11-02T03:48:15;5.40;;;3.30;;
18200;SDS011;9226;47.858;9.594;2022-11-02T03:50:47;8.67;;;4.07;;
18200;SDS011;9226;47.858;9.594;2022-11-02T03:53:17;9.83;;;4.30;;
18200;SDS011;9226;47.858;9.594;2022-11-02T03:55:49;11.23;;;4.23;;
18200;SDS011;9226;47.858;9.594;2022-11-02T03:58:18;7.20;;;3.80;;
18200;SDS011;9226;47.858;9.594;2022-11-02T04:00:51;9.70;;;4.17;;
18200;SDS011;9226;47.858;9.594;2022-11-02T04:03:20;10.33;;;4.17;;
18200;SDS011;9226;47.858;9.594;2022-11-02T04:05:48;14.50;;;4.17;;
18200;SDS011;9226;47.858;9.594;2022-11-02T04:08:14;13.27;;;5.03;;
18200;SDS011;9226;47.858;9.594;2022-11-02T04:10:45;9.43;;;4.53;;
18200;SDS011;9226;47.858;9.594;2022-11-02T04:13:29;16.13;;;4.83;;
18200;SDS011;9226;47.858;9.594;2022-11-02T04:16:14;11.13;;;5.23;;
18200;SDS011;9226;47.858;9.594;2022-11-02T04:18:40;17.93;;;4.83;;
18200;SDS011;9226;47.858;9.594;2022-11-02T04:21:25;18.57;;;4.73;;
18200;SDS011;9226;47.858;9.594;2022-11-02T04:23:50;12.20;;;5.03;;
18200;SDS011;9226;47.858;9.594;2022-11-02T04:26:39;17.17;;;5.30;;
18200;SDS011;9226;47.858;9.594;2022-11-02T04:29:05;11.10;;;4.60;;
18200;SDS011;9226;47.858;9.594;2022-11-02T04:31:30;12.33;;;4.53;;
18200;SDS011;9226;47.858;9.594;2022-11-02T04:33:56;10.93;;;4.47;;
18200;SDS011;9226;47.858;9.594;2022-11-02T04:36:25;9.13;;;4.93;;
18200;SDS011;9226;47.858;9.594;2022-11-02T04:38:53;14.33;;;5.20;;
18200;SDS011;9226;47.858;9.594;2022-11-02T04:41:19;11.60;;;5.07;;
18200;SDS011;9226;47.858;9.594;2022-11-02T04:44:05;15.30;;;5.63;;
18200;SDS011;9226;47.858;9.594;2022-11-02T04:46:32;16.70;;;5.70;;
18200;SDS011;9226;47.858;9.594;2022-11-02T04:48:58;10.90;;;5.43;;
18200;SDS011;9226;47.858;9.594;2022-11-02T04:51:25;14.07;;;5.60;;
18200;SDS011;9226;47.858;9.594;2022-11-02T04:53:52;16.40;;;6.03;;
18200;SDS011;9226;47.858;9.594;2022-11-02T04:56:18;16.47;;;5.80;;
18200;SDS011;9226;47.858;9.594;2022-11-02T04:58:47;20.67;;;5.93;;
18200;SDS011;9226;47.858;9.594;2022-11-02T05:01:14;20.60;;;6.17;;
18200;SDS011;9226;47.858;9.594;2022-11-02T05:03:41;17.37;;;6.43;;
18200;SDS011;9226;47.858;9.594;2022-11-02T05:06:08;13.27;;;5.70;;
18200;SDS011;9226;47.858;9.594;2022-11-02T05:08:34;12.97;;;6.43;;
18200;SDS011;9226;47.858;9.594;2022-11-02T05:11:00;15.93;;;6.07;;
18200;SDS011;9226;47.858;9.594;2022-11-02T05:13:25;13.40;;;5.90;;
18200;SDS011;9226;47.858;9.594;2022-11-02T05:15:54;12.67;;;6.17;;
18200;SDS011;9226;47.858;9.594;2022-11-02T05:18:20;13.77;;;5.67;;
18200;SDS011;9226;47.858;9.594;2022-11-02T05:20:50;10.93;;;5.63;;
18200;SDS011;9226;47.858;9.594;2022-11-02T05:23:17;10.33;;;4.67;;
18200;SDS011;9226;47.858;9.594;2022-11-02T05:25:50;14.40;;;5.67;;
18200;SDS011;9226;47.858;9.594;2022-11-02T05:28:16;16.03;;;5.20;;
18200;SDS011;9226;47.858;9.594;2022-11-02T05:30:41;12.13;;;5.10;;
18200;SDS011;9226;47.858;9.594;2022-11-02T05:33:07;16.80;;;5.53;;
18200;SDS011;9226;47.858;9.594;2022-11-02T05:35:32;12.10;;;4.80;;
18200;SDS011;9226;47.858;9.594;2022-11-02T05:37:58;12.67;;;5.03;;
18200;SDS011;9226;47.858;9.594;2022-11-02T05:40:23;14.07;;;4.60;;
18200;SDS011;9226;47.858;9.594;2022-11-02T05:42:48;10.87;;;4.90;;
18200;SDS011;9226;47.858;9.594;2022-11-02T05:45:14;8.90;;;4.43;;
18200;SDS011;9226;47.858;9.594;2022-11-02T05:47:39;7.13;;;3.90;;
18200;SDS011;9226;47.858;9.594;2022-11-02T05:50:05;22.77;;;5.20;;
18200;SDS011;9226;47.858;9.594;2022-11-02T05:52:31;10.73;;;4.20;;
18200;SDS011;9226;47.858;9.594;2022-11-02T05:54:56;10.77;;;4.33;;
18200;SDS011;9226;47.858;9.594;2022-11-02T05:57:21;11.40;;;4.10;;
18200;SDS011;9226;47.858;9.594;2022-11-02T05:59:47;13.30;;;4.80;;
18200;SDS011;9226;47.858;9.594;2022-11-02T06:02:12;15.57;;;4.57;;
18200;SDS011;9226;47.858;9.594;2022-11-02T06:04:38;8.60;;;3.90;;
18200;SDS011;9226;47.858;9.594;2022-11-02T06:07:03;7.87;;;3.83;;
18200;SDS011;9226;47.858;9.594;2022-11-02T06:09:29;11.07;;;3.33;;
18200;SDS011;9226;47.858;9.594;2022-11-02T06:11:54;8.93;;;4.20;;
18200;SDS011;9226;47.858;9.594;2022-11-02T06:14:20;7.23;;;3.57;;
18200;SDS011;9226;47.858;9.594;2022-11-02T06:16:45;12.27;;;3.70;;
18200;SDS011;9226;47.858;9.594;2022-11-02T06:19:11;7.70;;;3.47;;
18200;SDS011;9226;47.858;9.594;2022-11-02T06:21:36;11.97;;;4.07;;
18200;SDS011;9226;47.858;9.594;2022-11-02T06:24:02;12.37;;;4.37;;
18200;SDS011;9226;47.858;9.594;2022-11-02T06:26:27;18.03;;;4.13;;
18200;SDS011;9226;47.858;9.594;2022-11-02T06:28:52;12.50;;;3.87;;
18200;SDS011;9226;47.858;9.594;2022-11-02T06:31:18;8.77;;;3.97;;
18200;SDS011;9226;47.858;9.594;2022-11-02T06:33:43;7.63;;;4.00;;
18200;SDS011;9226;47.858;9.594;2022-11-02T06:36:09;8.90;;;3.50;;
18200;SDS011;9226;47.858;9.594;2022-11-02T06:38:35;9.20;;;3.47;;
18200;SDS011;9226;47.858;9.594;2022-11-02T06:41:02;14.87;;;3.70;;
18200;SDS011;9226;47.858;9.594;2022-11-02T06:43:30;7.27;;;3.50;;
18200;SDS011;9226;47.858;9.594;2022-11-02T06:45:57;8.20;;;3.70;;
18200;SDS011;9226;47.858;9.594;2022-11-02T06:48:23;10.17;;;3.60;;
18200;SDS011;9226;47.858;9.594;2022-11-02T06:50:50;12.03;;;3.50;;
18200;SDS011;9226;47.858;9.594;2022-11-02T06:53:15;8.37;;;3.80;;
18200;SDS011;9226;47.858;9.594;2022-11-02T06:55:41;12.10;;;5.40;;
18200;SDS011;9226;47.858;9.594;2022-11-02T06:58:06;10.30;;;4.23;;
18200;SDS011;9226;47.858;9.594;2022-11-02T07:00:31;14.00;;;4.50;;
18200;SDS011;9226;47.858;9.594;2022-11-02T07:02:58;13.83;;;5.77;;
18200;SDS011;9226;47.858;9.594;2022-11-02T07:05:28;11.77;;;5.10;;
18200;SDS011;9226;47.858;9.594;2022-11-02T07:07:54;17.33;;;8.57;;
18200;SDS011;9226;47.858;9.594;2022-11-02T07:10:20;13.57;;;5.87;;
18200;SDS011;9226;47.858;9.594;2022-11-02T07:12:45;10.90;;;4.97;;
18200;SDS011;9226;47.858;9.594;2022-11-02T07:15:11;11.63;;;5.70;;
18200;SDS011;9226;47.858;9.594;2022-11-02T07:17:39;10.40;;;5.47;;
18200;SDS011;9226;47.858;9.594;2022-11-02T07:20:05;11.93;;;5.73;;
18200;SDS011;9226;47.858;9.594;2022-11-02T07:22:31;11.23;;;5.03;;
18200;SDS011;9226;47.858;9.594;2022-11-02T07:24:56;15.23;;;5.30;;
18200;SDS011;9226;47.858;9.594;2022-11-02T07:27:22;11.70;;;5.60;;
18200;SDS011;9226;47.858;9.594;2022-11-02T07:29:47;13.80;;;5.33;;
18200;SDS011;9226;47.858;9.594;2022-11-02T07:32:13;13.27;;;4.90;;
18200;SDS011;9226;47.858;9.594;2022-11-02T07:34:39;8.93;;;4.63;;
18200;SDS011;9226;47.858;9.594;2022-11-02T07:37:04;15.27;;;4.97;;
18200;SDS011;9226;47.858;9.594;2022-11-02T07:39:30;8.60;;;4.00;;
18200;SDS011;9226;47.858;9.594;2022-11-02T07:41:55;9.57;;;4.03;;
18200;SDS011;9226;47.858;9.594;2022-11-02T07:44:20;9.57;;;4.90;;
18200;SDS011;9226;47.858;9.594;2022-11-02T07:46:46;12.97;;;4.43;;
18200;SDS011;9226;47.858;9.594;2022-11-02T07:49:11;11.60;;;4.73;;
18200;SDS011;9226;47.858;9.594;2022-11-02T07:51:37;13.40;;;4.80;;
18200;SDS011;9226;47.858;9.594;2022-11-02T07:54:02;10.57;;;4.53;;
18200;SDS011;9226;47.858;9.594;2022-11-02T07:56:28;12.47;;;4.57;;
18200;SDS011;9226;47.858;9.594;2022-11-02T07:58:53;8.70;;;3.77;;
18200;SDS011;9226;47.858;9.594;2022-11-02T08:01:19;11.33;;;3.73;;
18200;SDS011;9226;47.858;9.594;2022-11-02T08:03:44;10.80;;;3.80;;
18200;SDS011;9226;47.858;9.594;2022-11-02T08:06:09;8.87;;;3.20;;
18200;SDS011;9226;47.858;9.594;2022-11-02T08:08:35;11.90;;;3.40;;
18200;SDS011;9226;47.858;9.594;2022-11-02T08:11:04;12.60;;;3.27;;
18200;SDS011;9226;47.858;9.594;2022-11-02T08:13:31;9.90;;;3.10;;
18200;SDS011;9226;47.858;9.594;2022-11-02T08:15:57;8.10;;;2.83;;
18200;SDS011;9226;47.858;9.594;2022-11-02T08:18:23;7.50;;;2.93;;
18200;SDS011;9226;47.858;9.594;2022-11-02T08:20:50;8.13;;;2.90;;
18200;SDS011;9226;47.858;9.594;2022-11-02T08:23:17;9.87;;;2.83;;
18200;SDS011;9226;47.858;9.594;2022-11-02T08:25:45;8.37;;;2.60;;
18200;SDS011;9226;47.858;9.594;2022-11-02T08:28:13;7.27;;;3.13;;
18200;SDS011;9226;47.858;9.594;2022-11-02T08:30:46;7.83;;;2.90;;
18200;SDS011;9226;47.858;9.594;2022-11-02T08:33:12;12.30;;;2.93;;
18200;SDS011;9226;47.858;9.594;2022-11-02T08:35:39;7.27;;;3.07;;
18200;SDS011;9226;47.858;9.594;2022-11-02T08:38:06;7.40;;;2.80;;
18200;SDS011;9226;47.858;9.594;2022-11-02T08:40:33;11.53;;;3.60;;
18200;SDS011;9226;47.858;9.594;2022-11-02T08:43:00;11.07;;;3.70;;
18200;SDS011;9226;47.858;9.594;2022-11-02T08:45:27;7.57;;;3.47;;
18200;SDS011;9226;47.858;9.594;2022-11-02T08:47:57;10.23;;;3.73;;
18200;SDS011;9226;47.858;9.594;2022-11-02T08:50:23;10.23;;;4.33;;
18200;SDS011;9226;47.858;9.594;2022-11-02T08:52:50;10.30;;;4.23;;
18200;SDS011;9226;47.858;9.594;2022-11-02T08:55:16;11.33;;;4.80;;
18200;SDS011;9226;47.858;9.594;2022-11-02T08:57:48;16.27;;;4.70;;
18200;SDS011;9226;47.858;9.594;2022-11-02T09:00:14;14.87;;;4.47;;
18200;SDS011;9226;47.858;9.594;2022-11-02T09:02:41;8.73;;;3.10;;
18200;SDS011;9226;47.858;9.594;2022-11-02T09:05:07;6.43;;;2.77;;
18200;SDS011;9226;47.858;9.594;2022-11-02T09:07:32;8.20;;;2.77;;
18200;SDS011;9226;47.858;9.594;2022-11-02T09:09:58;12.70;;;1.90;;
18200;SDS011;9226;47.858;9.594;2022-11-02T09:12:23;6.87;;;1.90;;
18200;SDS011;9226;47.858;9.594;2022-11-02T09:14:49;9.20;;;2.20;;
18200;SDS011;9226;47.858;9.594;2022-11-02T09:17:14;7.23;;;1.97;;
18200;SDS011;9226;47.858;9.594;2022-11-02T09:19:39;8.53;;;2.30;;
18200;SDS011;9226;47.858;9.594;2022-11-02T09:22:05;8.13;;;1.93;;
18200;SDS011;9226;47.858;9.594;2022-11-02T09:24:30;5.37;;;2.03;;
18200;SDS011;9226;47.858;9.594;2022-11-02T09:26:56;9.57;;;1.90;;
18200;SDS011;9226;47.858;9.594;2022-11-02T09:29:21;7.23;;;1.90;;
18200;SDS011;9226;47.858;9.594;2022-11-02T09:31:47;4.40;;;2.10;;
18200;SDS011;9226;47.858;9.594;2022-11-02T09:34:13;7.40;;;2.53;;
18200;SDS011;9226;47.858;9.594;2022-11-02T09:36:39;5.77;;;1.60;;
18200;SDS011;9226;47.858;9.594;2022-11-02T09:39:05;9.40;;;2.27;;
18200;SDS011;9226;47.858;9.594;2022-11-02T09:41:37;4.87;;;2.20;;
18200;SDS011;9226;47.858;9.594;2022-11-02T09:44:15;9.00;;;2.17;;
18200;SDS011;9226;47.858;9.594;2022-11-02T09:47:06;5.40;;;1.73;;
18200;SDS011;9226;47.858;9.594;2022-11-02T09:49:35;6.20;;;1.87;;
18200;SDS011;9226;47.858;9.594;2022-11-02T09:52:01;4.90;;;1.90;;
18200;SDS011;9226;47.858;9.594;2022-11-02T09:54:40;5.97;;;1.90;;
18200;SDS011;9226;47.858;9.594;2022-11-02T09:57:18;7.47;;;1.83;;
18200;SDS011;9226;47.858;9.594;2022-11-02T09:59:51;7.77;;;2.17;;
18200;SDS011;9226;47.858;9.594;2022-11-02T10:05:19;4.20;;;1.60;;
18200;SDS011;9226;47.858;9.594;2022-11-02T10:08:20;7.77;;;1.63;;
18200;SDS011;9226;47.858;9.594;2022-11-02T10:16:23;5.03;;;1.50;;
18200;SDS011;9226;47.858;9.594;2022-11-02T10:18:54;7.83;;;1.70;;
18200;SDS011;9226;47.858;9.594;2022-11-02T10:21:25;5.43;;;1.80;;
18200;SDS011;9226;47.858;9.594;2022-11-02T10:23:55;12.67;;;2.00;;
18200;SDS011;9226;47.858;9.594;2022-11-02T10:26:28;10.63;;;2.00;;
18200;SDS011;9226;47.858;9.594;2022-11-02T10:28:58;6.50;;;1.63;;
18200;SDS011;9226;47.858;9.594;2022-11-02T10:31:35;9.47;;;2.30;;
18200;SDS011;9226;47.858;9.594;2022-11-02T10:34:10;6.00;;;1.33;;
18200;SDS011;9226;47.858;9.594;2022-11-02T10:36:52;3.43;;;1.50;;
18200;SDS011;9226;47.858;9.594;2022-11-02T10:39:39;6.73;;;1.90;;
18200;SDS011;9226;47.858;9.594;2022-11-02T10:48:10;5.07;;;1.60;;
18200;SDS011;9226;47.858;9.594;2022-11-02T10:51:09;4.23;;;1.70;;
18200;SDS011;9226;47.858;9.594;2022-11-02T10:53:58;6.13;;;1.60;;
18200;SDS011;9226;47.858;9.594;2022-11-02T10:56:23;4.10;;;1.37;;
18200;SDS011;9226;47.858;9.594;2022-11-02T11:01:37;5.17;;;1.73;;
18200;SDS011;9226;47.858;9.594;2022-11-02T11:04:31;7.80;;;2.30;;
18200;SDS011;9226;47.858;9.594;2022-11-02T11:07:10;4.73;;;1.80;;
18200;SDS011;9226;47.858;9.594;2022-11-02T11:09:50;7.30;;;1.70;;
18200;SDS011;9226;47.858;9.594;2022-11-02T11:14:57;3.93;;;1.80;;
18200;SDS011;9226;47.858;9.594;2022-11-02T11:17:28;9.23;;;1.90;;
18200;SDS011;9226;47.858;9.594;2022-11-02T11:19:58;5.13;;;2.37;;
18200;SDS011;9226;47.858;9.594;2022-11-02T11:22:44;7.27;;;1.70;;
18200;SDS011;9226;47.858;9.594;2022-11-02T11:30:28;9.27;;;1.70;;
18200;SDS011;9226;47.858;9.594;2022-11-02T11:32:56;4.63;;;1.30;;
18200;SDS011;9226;47.858;9.594;2022-11-02T11:35:24;7.27;;;1.57;;
18200;SDS011;9226;47.858;9.594;2022-11-02T11:37:55;4.83;;;1.67;;
18200;SDS011;9226;47.858;9.594;2022-11-02T11:40:24;9.60;;;1.60;;
18200;SDS011;9226;47.858;9.594;2022-11-02T11:42:54;7.27;;;1.60;;
18200;SDS011;9226;47.858;9.594;2022-11-02T11:45:24;6.50;;;1.90;;
18200;SDS011;9226;47.858;9.594;2022-11-02T11:47:52;6.83;;;1.77;;
18200;SDS011;9226;47.858;9.594;2022-11-02T11:50:21;5.97;;;1.20;;
18200;SDS011;9226;47.858;9.594;2022-11-02T11:52:47;4.93;;;1.37;;
18200;SDS011;9226;47.858;9.594;2022-11-02T11:55:32;8.90;;;1.27;;
18200;SDS011;9226;47.858;9.594;2022-11-02T12:00:45;4.20;;;1.33;;
18200;SDS011;9226;47.858;9.594;2022-11-02T12:03:25;4.90;;;1.40;;
18200;SDS011;9226;47.858;9.594;2022-11-02T12:13:55;4.33;;;1.53;;
18200;SDS011;9226;47.858;9.594;2022-11-02T12:16:28;6.67;;;1.47;;
18200;SDS011;9226;47.858;9.594;2022-11-02T12:27:50;6.20;;;1.40;;
18200;SDS011;9226;47.858;9.594;2022-11-02T12:36:15;3.17;;;1.10;;
18200;SDS011;9226;47.858;9.594;2022-11-02T12:39:07;7.67;;;1.10;;
18200;SDS011;9226;47.858;9.594;2022-11-02T12:41:45;3.27;;;1.10;;
18200;SDS011;9226;47.858;9.594;2022-11-02T12:47:54;6.20;;;1.30;;
18200;SDS011;9226;47.858;9.594;2022-11-02T12:55:21;7.03;;;1.70;;
18200;SDS011;9226;47.858;9.594;2022-11-02T12:57:51;6.53;;;1.40;;
18200;SDS011;9226;47.858;9.594;2022-11-02T13:00:22;2.43;;;1.47;;
18200;SDS011;9226;47.858;9.594;2022-11-02T13:02:56;5.73;;;1.40;;
18200;SDS011;9226;47.858;9.594;2022-11-02T13:05:37;5.63;;;1.60;;
18200;SDS011;9226;47.858;9.594;2022-11-02T13:10:43;6.63;;;1.57;;
18200;SDS011;9226;47.858;9.594;2022-11-02T13:13:15;5.50;;;1.53;;
18200;SDS011;9226;47.858;9.594;2022-11-02T13:15:45;5.23;;;1.60;;
18200;SDS011;9226;47.858;9.594;2022-11-02T13:18:20;8.10;;;1.60;;
18200;SDS011;9226;47.858;9.594;2022-11-02T13:20:51;5.33;;;1.50;;
18200;SDS011;9226;47.858;9.594;2022-11-02T13:26:27;6.40;;;2.40;;
18200;SDS011;9226;47.858;9.594;2022-11-02T13:29:18;16.10;;;3.43;;
18200;SDS011;9226;47.858;9.594;2022-11-02T13:31:58;14.43;;;3.57;;
18200;SDS011;9226;47.858;9.594;2022-11-02T13:34:31;6.77;;;1.97;;
18200;SDS011;9226;47.858;9.594;2022-11-02T13:37:07;20.90;;;4.63;;
18200;SDS011;9226;47.858;9.594;2022-11-02T13:39:38;25.57;;;5.37;;
18200;SDS011;9226;47.858;9.594;2022-11-02T13:42:53;8.90;;;2.80;;
18200;SDS011;9226;47.858;9.594;2022-11-02T13:50:50;9.93;;;2.47;;
18200;SDS011;9226;47.858;9.594;2022-11-02T13:53:21;5.97;;;1.97;;
18200;SDS011;9226;47.858;9.594;2022-11-02T13:55:58;8.47;;;1.97;;
18200;SDS011;9226;47.858;9.594;2022-11-02T13:58:26;6.87;;;2.13;;
18200;SDS011;9226;47.858;9.594;2022-11-02T14:01:03;8.53;;;1.77;;
18200;SDS011;9226;47.858;9.594;2022-11-02T14:06:17;3.50;;;1.50;;
18200;SDS011;9226;47.858;9.594;2022-11-02T14:27:02;6.70;;;1.30;;
18200;SDS011;9226;47.858;9.594;2022-11-02T14:29:51;4.67;;;1.53;;
18200;SDS011;9226;47.858;9.594;2022-11-02T14:47:06;22.00;;;4.80;;
18200;SDS011;9226;47.858;9.594;2022-11-02T14:49:50;8.83;;;3.47;;
18200;SDS011;9226;47.858;9.594;2022-11-02T14:52:27;6.83;;;2.50;;
18200;SDS011;9226;47.858;9.594;2022-11-02T14:55:01;10.67;;;2.60;;
18200;SDS011;9226;47.858;9.594;2022-11-02T15:00:19;7.37;;;2.40;;
18200;SDS011;9226;47.858;9.594;2022-11-02T15:02:46;8.47;;;2.73;;
18200;SDS011;9226;47.858;9.594;2022-11-02T15:05:21;11.50;;;2.20;;
18200;SDS011;9226;47.858;9.594;2022-11-02T15:07:51;9.23;;;2.50;;
18200;SDS011;9226;47.858;9.594;2022-11-02T15:15:43;7.43;;;1.97;;
18200;SDS011;9226;47.858;9.594;2022-11-02T15:21:37;11.03;;;2.50;;
18200;SDS011;9226;47.858;9.594;2022-11-02T15:26:57;13.07;;;5.20;;
18200;SDS011;9226;47.858;9.594;2022-11-02T15:29:19;10.07;;;3.47;;
18200;SDS011;9226;47.858;9.594;2022-11-02T15:31:55;10.27;;;3.67;;
18200;SDS011;9226;47.858;9.594;2022-11-02T15:34:28;9.43;;;3.60;;
18200;SDS011;9226;47.858;9.594;2022-11-02T15:36:59;6.73;;;2.10;;
18200;SDS011;9226;47.858;9.594;2022-11-02T15:39:26;7.77;;;2.23;;
18200;SDS011;9226;47.858;9.594;2022-11-02T15:50:18;8.70;;;2.60;;
18200;SDS011;9226;47.858;9.594;2022-11-02T16:00:43;7.50;;;2.20;;
18200;SDS011;9226;47.858;9.594;2022-11-02T16:03:48;5.10;;;2.10;;
18200;SDS011;9226;47.858;9.594;2022-11-02T16:06:23;5.57;;;2.13;;
18200;SDS011;9226;47.858;9.594;2022-11-02T16:08:49;5.23;;;2.17;;
18200;SDS011;9226;47.858;9.594;2022-11-02T16:11:16;9.57;;;3.00;;
18200;SDS011;9226;47.858;9.594;2022-11-02T16:13:43;7.80;;;2.50;;
18200;SDS011;9226;47.858;9.594;2022-11-02T16:16:12;5.53;;;2.30;;
18200;SDS011;9226;47.858;9.594;2022-11-02T16:18:40;7.53;;;2.20;;
18200;SDS011;9226;47.858;9.594;2022-11-02T16:21:09;5.67;;;2.40;;
18200;SDS011;9226;47.858;9.594;2022-11-02T16:23:39;7.77;;;2.77;;
18200;SDS011;9226;47.858;9.594;2022-11-02T16:26:07;11.43;;;2.63;;
18200;SDS011;9226;47.858;9.594;2022-11-02T16:28:45;6.17;;;2.47;;
18200;SDS011;9226;47.858;9.594;2022-11-02T16:31:16;9.17;;;3.20;;
18200;SDS011;9226;47.858;9.594;2022-11-02T16:34:06;8.43;;;3.50;;
18200;SDS011;9226;47.858;9.594;2022-11-02T16:36:53;11.07;;;4.47;;
18200;SDS011;9226;47.858;9.594;2022-11-02T16:41:46;10.57;;;4.30;;
18200;SDS011;9226;47.858;9.594;2022-11-02T16:49:19;7.97;;;3.27;;
18200;SDS011;9226;47.858;9.594;2022-11-02T16:51:47;5.23;;;2.77;;
18200;SDS011;9226;47.858;9.594;2022-11-02T16:54:27;6.47;;;2.70;;
18200;SDS011;9226;47.858;9.594;2022-11-02T16:57:01;14.70;;;5.63;;
18200;SDS011;9226;47.858;9.594;2022-11-02T16:59:35;16.37;;;4.07;;
18200;SDS011;9226;47.858;9.594;2022-11-02T17:02:03;10.53;;;3.00;;
18200;SDS011;9226;47.858;9.594;2022-11-02T17:04:30;8.40;;;2.43;;
18200;SDS011;9226;47.858;9.594;2022-11-02T17:09:54;7.73;;;2.70;;
18200;SDS011;9226;47.858;9.594;2022-11-02T17:12:42;6.60;;;2.83;;
18200;SDS011;9226;47.858;9.594;2022-11-02T17:15:19;9.60;;;3.37;;
18200;SDS011;9226;47.858;9.594;2022-11-02T17:17:47;13.17;;;4.60;;
18200;SDS011;9226;47.858;9.594;2022-11-02T17:22:53;13.43;;;5.50;;
18200;SDS011;9226;47.858;9.594;2022-11-02T17:25:30;19.60;;;4.77;;
18200;SDS011;9226;47.858;9.594;2022-11-02T17:30:57;11.50;;;3.17;;
18200;SDS011;9226;47.858;9.594;2022-11-02T17:35:51;10.10;;;3.23;;
18200;SDS011;9226;47.858;9.594;2022-11-02T17:38:20;13.20;;;3.43;;
18200;SDS011;9226;47.858;9.594;2022-11-02T17:40:49;10.33;;;3.47;;
18200;SDS011;9226;47.858;9.594;2022-11-02T17:43:17;10.37;;;3.03;;
18200;SDS011;9226;47.858;9.594;2022-11-02T17:45:43;11.50;;;3.13;;
18200;SDS011;9226;47.858;9.594;2022-11-02T17:48:08;10.47;;;3.97;;
18200;SDS011;9226;47.858;9.594;2022-11-02T17:50:35;25.63;;;10.83;;
18200;SDS011;9226;47.858;9.594;2022-11-02T17:53:03;51.27;;;22.93;;
18200;SDS011;9226;47.858;9.594;2022-11-02T17:55:31;64.00;;;33.13;;
18200;SDS011;9226;47.858;9.594;2022-11-02T17:57:58;40.07;;;18.10;;
18200;SDS011;9226;47.858;9.594;2022-11-02T18:00:24;20.47;;;7.60;;
18200;SDS011;9226;47.858;9.594;2022-11-02T18:02:52;22.00;;;9.37;;
18200;SDS011;9226;47.858;9.594;2022-11-02T18:07:52;26.73;;;14.83;;
18200;SDS011;9226;47.858;9.594;2022-11-02T18:10:19;24.23;;;12.73;;
18200;SDS011;9226;47.858;9.594;2022-11-02T18:12:45;24.20;;;11.50;;
18200;SDS011;9226;47.858;9.594;2022-11-02T18:15:30;20.87;;;10.13;;
18200;SDS011;9226;47.858;9.594;2022-11-02T18:17:57;24.87;;;10.07;;